Time;durP1;ratioP1;P1;durP2;ratioP2;P2;SDS_P1;SDS_P2;PMS_P1;PMS_P2;Temp;Humidity;BMP_temperature;BMP_pressure;BME280_temperature;BME280_humidity;BME280_pressure;Samples;Min_cycle;Max_cycle;Signal;HPM_P1;HPM_P2
2021/04/20 00:01:48;;;;;;;22.13;14.17;;;;;;;8.11;71.90;99295.52;1780796;78;21158;-50
2021/04/20 00:04:16;;;;;;;23.30;16.37;;;;;;;8.03;71.93;99293.66;1781659;78;21176;-49
2021/04/20 00:06:45;;;;;;;18.67;14.00;;;;;;;7.96;71.98;99289.05;1778407;78;21211;-49
2021/04/20 00:09:12;;;;;;;18.60;13.20;;;;;;;7.90;72.13;99285.32;1783646;78;21371;-49
2021/04/20 00:11:40;;;;;;;15.47;11.50;;;;;;;7.86;72.25;99297.09;1781217;78;21654;-49
2021/04/20 00:14:09;;;;;;;19.90;13.10;;;;;;;7.83;72.34;99294.55;1783655;78;21131;-49
2021/04/20 00:16:37;;;;;;;17.03;12.83;;;;;;;7.79;72.42;99288.47;1783934;78;21135;-50
2021/04/20 00:19:06;;;;;;;18.37;11.93;;;;;;;7.76;72.46;99283.70;1787939;78;21640;-49
2021/04/20 00:21:34;;;;;;;18.03;10.83;;;;;;;7.73;72.46;99278.50;1781141;78;21103;-49
2021/04/20 00:24:02;;;;;;;22.17;13.27;;;;;;;7.69;72.27;99279.55;1726132;81;21767;-50
2021/04/20 00:26:30;;;;;;;18.00;12.93;;;;;;;7.62;72.30;99274.07;1785127;78;21124;-49
2021/04/20 00:28:57;;;;;;;20.80;14.03;;;;;;;7.56;72.35;99272.55;1784528;78;21477;-49
2021/04/20 00:31:25;;;;;;;21.43;15.10;;;;;;;7.50;72.26;99265.62;1781551;78;21139;-49
2021/04/20 00:33:52;;;;;;;20.30;14.33;;;;;;;7.44;72.27;99263.22;1782842;78;21150;-49
2021/04/20 00:36:19;;;;;;;16.50;12.57;;;;;;;7.37;72.32;99264.43;1783126;78;21190;-48
2021/04/20 00:38:46;;;;;;;19.67;11.87;;;;;;;7.29;72.35;99257.20;1785685;78;21970;-50
2021/04/20 00:41:14;;;;;;;16.90;11.90;;;;;;;7.23;72.35;99259.27;1782398;78;21124;-49
2021/04/20 00:43:46;;;;;;;18.13;12.97;;;;;;;7.15;72.35;99255.08;1782005;78;21095;-49
2021/04/20 00:46:19;;;;;;;16.07;11.20;;;;;;;7.10;72.44;99256.22;1784861;78;21389;-50
2021/04/20 00:48:47;;;;;;;15.73;12.63;;;;;;;7.06;72.51;99258.64;1782846;78;21377;-49
2021/04/20 00:51:14;;;;;;;20.20;14.87;;;;;;;7.00;72.55;99256.20;1730618;81;21719;-49
2021/04/20 00:53:42;;;;;;;17.47;13.20;;;;;;;6.95;72.82;99257.73;1783592;78;21100;-49
2021/04/20 00:56:09;;;;;;;19.83;14.30;;;;;;;6.90;72.90;99245.00;1784090;78;21634;-49
2021/04/20 00:58:38;;;;;;;15.33;13.17;;;;;;;6.84;72.80;99251.48;1782296;78;21110;-48
2021/04/20 01:01:06;;;;;;;18.07;15.00;;;;;;;6.79;72.69;99249.94;1782535;78;21196;-49
2021/04/20 01:03:34;;;;;;;18.10;15.20;;;;;;;6.73;72.67;99251.05;1781340;78;21127;-49
2021/04/20 01:06:02;;;;;;;20.00;15.73;;;;;;;6.67;72.63;99237.05;1755640;78;21479;-50
2021/04/20 01:08:29;;;;;;;16.93;14.63;;;;;;;6.60;72.72;99244.47;1782431;78;21132;-50
2021/04/20 01:10:58;;;;;;;15.67;13.07;;;;;;;6.55;72.75;99245.59;1782247;78;21147;-49
2021/04/20 01:13:28;;;;;;;13.77;11.03;;;;;;;6.51;72.92;99241.28;1746060;80;22702;-49
2021/04/20 01:15:55;;;;;;;18.00;12.63;;;;;;;6.47;72.90;99239.19;1783400;78;21207;-49
2021/04/20 01:18:31;;;;;;;16.53;12.73;;;;;;;6.45;72.88;99234.38;1725222;81;21926;-49
2021/04/20 01:21:03;;;;;;;20.17;12.87;;;;;;;6.44;72.91;99236.66;1780224;78;21202;-49
2021/04/20 01:23:48;;;;;;;21.20;14.10;;;;;;;6.42;72.85;99224.67;1780735;78;21218;-50
2021/04/20 01:26:15;;;;;;;19.07;12.90;;;;;;;6.38;72.70;99223.04;1779713;78;22345;-49
2021/04/20 01:28:43;;;;;;;22.57;14.93;;;;;;;6.31;72.76;99225.55;1761337;78;21439;-49
2021/04/20 01:31:12;;;;;;;21.50;15.03;;;;;;;6.23;72.76;99218.77;1780169;78;22404;-49
2021/04/20 01:33:41;;;;;;;21.97;14.53;;;;;;;6.15;72.74;99215.52;1779807;78;22265;-49
2021/04/20 01:36:11;;;;;;;21.73;14.83;;;;;;;6.06;72.56;99215.41;1781676;78;21787;-49
2021/04/20 01:38:43;;;;;;;18.47;13.40;;;;;;;5.96;72.57;99204.67;1781807;78;21465;-49
2021/04/20 01:41:10;;;;;;;16.33;10.73;;;;;;;5.89;72.73;99204.04;1782854;78;21175;-49
2021/04/20 01:43:38;;;;;;;18.13;11.10;;;;;;;5.86;72.87;99200.59;1779032;78;21194;-50
2021/04/20 01:46:05;;;;;;;16.40;12.73;;;;;;;5.86;72.91;99192.59;1781928;78;21105;-49
2021/04/20 01:48:33;;;;;;;19.57;13.13;;;;;;;5.85;72.95;99197.05;1724735;80;21189;-49
2021/04/20 01:51:01;;;;;;;17.10;13.00;;;;;;;5.86;72.97;99195.25;1721652;81;21136;-49
2021/04/20 01:53:28;;;;;;;20.97;14.53;;;;;;;5.86;73.01;99192.59;1729417;80;21580;-49
2021/04/20 01:56:05;;;;;;;19.50;15.50;;;;;;;5.85;72.98;99195.72;1781989;78;21119;-50
2021/04/20 01:58:35;;;;;;;21.83;16.23;;;;;;;5.85;73.01;99190.84;1785181;78;21146;-49
2021/04/20 02:01:13;;;;;;;21.97;16.77;;;;;;;5.81;73.19;99186.06;1786543;78;21245;-49
2021/04/20 02:03:42;;;;;;;19.53;14.63;;;;;;;5.77;73.36;99191.59;1783865;78;22082;-49
2021/04/20 02:06:10;;;;;;;22.70;16.77;;;;;;;5.70;73.42;99181.58;1782867;78;21128;-49
2021/04/20 02:08:37;;;;;;;19.03;13.47;;;;;;;5.62;73.58;99185.00;1783175;78;21219;-49
2021/04/20 02:11:09;;;;;;;15.27;10.27;;;;;;;5.56;73.80;99186.58;1781195;78;21178;-48
2021/04/20 02:13:37;;;;;;;11.60;10.10;;;;;;;5.53;73.80;99188.88;1783802;78;22043;-49
2021/04/20 02:16:06;;;;;;;17.07;10.00;;;;;;;5.51;74.05;99183.22;1723699;81;21251;-49
2021/04/20 02:18:38;;;;;;;19.60;11.80;;;;;;;5.52;74.27;99182.30;1783900;78;21139;-49
2021/04/20 02:21:05;;;;;;;20.07;12.80;;;;;;;5.54;74.28;99181.28;1783582;78;21580;-49
2021/04/20 02:23:32;;;;;;;19.13;13.47;;;;;;;5.57;74.30;99184.31;1781848;78;21155;-48
2021/04/20 02:26:06;;;;;;;13.50;12.00;;;;;;;5.58;74.37;99177.59;1727922;81;21195;-49
2021/04/20 02:28:34;;;;;;;14.85;12.30;;;;;;;5.58;74.32;99181.59;1783402;78;21481;-49
2021/04/20 02:31:05;;;;;;;22.77;14.43;;;;;;;5.58;74.28;99172.25;1724976;81;21208;-49
2021/04/20 02:33:32;;;;;;;23.93;16.57;;;;;;;5.56;74.13;99171.43;1781466;78;21594;-49
2021/04/20 02:36:00;;;;;;;21.70;15.23;;;;;;;5.55;74.16;99171.02;1781596;78;21772;-49
2021/04/20 02:38:28;;;;;;;19.77;15.67;;;;;;;5.51;73.98;99173.88;1723766;81;21191;-48
2021/04/20 02:40:57;;;;;;;24.27;15.00;;;;;;;5.45;74.01;99172.74;1724031;81;23467;-49
2021/04/20 02:43:24;;;;;;;22.57;15.30;;;;;;;5.41;73.98;99173.34;1726616;81;21595;-49
2021/04/20 02:45:53;;;;;;;21.27;12.97;;;;;;;5.41;74.06;99165.80;1785718;78;21531;-49
2021/04/20 02:48:21;;;;;;;16.20;13.53;;;;;;;5.40;74.16;99160.91;1782483;78;21615;-49
2021/04/20 02:50:48;;;;;;;18.57;15.23;;;;;;;5.40;73.91;99160.91;1782766;78;21104;-49
2021/04/20 02:53:16;;;;;;;24.43;16.60;;;;;;;5.40;73.66;99158.70;1779808;78;21369;-49
2021/04/20 02:55:44;;;;;;;26.57;17.90;;;;;;;5.38;73.56;99165.43;1725321;81;21180;-49
2021/04/20 02:58:23;;;;;;;23.60;18.70;;;;;;;5.36;73.64;99161.09;1782112;78;21179;-49
2021/04/20 03:00:59;;;;;;;23.50;17.83;;;;;;;5.35;73.69;99164.23;1745837;80;21748;-49
2021/04/20 03:03:26;;;;;;;23.73;17.97;;;;;;;5.34;73.71;99161.15;1783714;78;21087;-50
2021/04/20 03:05:53;;;;;;;25.17;18.33;;;;;;;5.33;73.61;99164.73;1726851;81;21342;-50
2021/04/20 03:08:21;;;;;;;27.07;20.40;;;;;;;5.29;73.54;99165.77;1783205;78;21116;-49
2021/04/20 03:10:49;;;;;;;25.40;20.57;;;;;;;5.23;73.48;99172.20;1784955;78;21107;-49
2021/04/20 03:13:17;;;;;;;18.80;15.00;;;;;;;5.17;73.65;99176.43;1785298;78;21605;-50
2021/04/20 03:15:44;;;;;;;17.10;13.93;;;;;;;5.12;73.76;99173.50;1783617;78;21104;-50
2021/04/20 03:18:11;;;;;;;19.57;14.03;;;;;;;5.08;73.80;99174.09;1783021;78;21366;-50
2021/04/20 03:20:38;;;;;;;17.10;14.07;;;;;;;5.05;73.88;99173.31;1783555;78;21556;-50
2021/04/20 03:23:05;;;;;;;19.10;11.23;;;;;;;5.05;74.00;99170.19;1782821;78;21139;-49
2021/04/20 03:25:33;;;;;;;17.80;13.37;;;;;;;5.07;73.98;99169.67;1767747;78;21084;-50
2021/04/20 03:28:00;;;;;;;15.73;12.20;;;;;;;5.06;74.09;99173.27;1793519;78;21111;-49
2021/04/20 03:30:32;;;;;;;19.73;13.73;;;;;;;5.09;74.29;99174.96;1735342;82;21372;-49
2021/04/20 03:33:15;;;;;;;20.27;15.53;;;;;;;5.13;74.43;99176.12;1732848;81;21468;-49
2021/04/20 03:35:59;;;;;;;25.20;16.47;;;;;;;5.17;74.51;99168.43;1735561;82;21100;-49
2021/04/20 03:39:02;;;;;;;23.07;16.23;;;;;;;5.24;74.57;99164.61;1863459;74;27582;-49
2021/04/20 03:41:37;;;;;;;26.60;16.83;;;;;;;5.22;74.75;99172.25;1832867;75;21566;-50
2021/04/20 03:44:05;;;;;;;21.70;16.27;;;;;;;5.23;74.87;99170.00;1814552;77;21195;-49
2021/04/20 03:46:35;;;;;;;19.20;14.13;;;;;;;5.25;75.14;99168.15;1817169;77;20952;-50
2021/04/20 03:49:07;;;;;;;20.10;14.23;;;;;;;5.31;75.31;99167.92;1815922;77;20976;-49
2021/04/20 03:51:37;;;;;;;22.77;15.20;;;;;;;5.39;75.48;99158.30;1781551;79;21092;-49
2021/04/20 03:54:07;;;;;;;20.40;15.80;;;;;;;5.47;75.68;99157.09;1751335;79;20960;-50
2021/04/20 03:56:35;;;;;;;26.57;16.60;;;;;;;5.56;75.90;99159.88;1747874;80;21393;-50
2021/04/20 03:59:04;;;;;;;24.17;17.03;;;;;;;5.62;76.09;99151.62;1759191;79;21043;-49
2021/04/20 04:01:38;;;;;;;19.10;16.60;;;;;;;5.66;76.29;99155.94;1763684;79;21215;-50
2021/04/20 04:04:14;;;;;;;26.33;18.07;;;;;;;5.73;76.53;99152.56;1762843;79;21151;-49
2021/04/20 04:06:42;;;;;;;21.27;16.50;;;;;;;5.82;76.62;99152.22;1754191;79;21180;-49
2021/04/20 04:09:11;;;;;;;23.83;17.80;;;;;;;5.88;76.75;99147.53;1758269;79;21189;-50
2021/04/20 04:12:03;;;;;;;18.77;14.97;;;;;;;5.95;76.91;99147.73;1760252;79;21234;-50
2021/04/20 04:14:32;;;;;;;16.40;13.20;;;;;;;6.05;77.01;99148.21;1760321;79;21185;-48
2021/04/20 04:17:08;;;;;;;16.30;12.73;;;;;;;6.21;77.03;99141.81;1757754;79;21153;-49
2021/04/20 04:19:38;;;;;;;19.17;15.13;;;;;;;6.34;76.99;99138.58;1759572;79;21184;-49
2021/04/20 04:22:16;;;;;;;20.97;14.00;;;;;;;6.51;77.15;99133.00;1763646;79;22217;-49
2021/04/20 04:24:58;;;;;;;15.40;13.40;;;;;;;6.67;77.06;99137.64;1761612;79;21204;-48
2021/04/20 04:27:29;;;;;;;19.47;13.97;;;;;;;6.80;76.92;99130.81;1762543;79;21098;-49
2021/04/20 04:30:03;;;;;;;21.80;14.80;;;;;;;6.94;76.75;99134.72;1761807;79;21169;-51
2021/04/20 04:32:30;;;;;;;19.87;15.47;;;;;;;7.05;76.64;99135.14;1760118;79;21200;-51
2021/04/20 04:34:57;;;;;;;23.80;15.13;;;;;;;7.17;76.64;99130.56;1761524;79;21513;-49
2021/04/20 04:37:25;;;;;;;20.40;17.20;;;;;;;7.29;76.58;99126.48;1757710;79;21595;-50
2021/04/20 04:39:52;;;;;;;20.80;15.07;;;;;;;7.37;76.41;99125.20;1746403;81;21181;-50
2021/04/20 04:42:21;;;;;;;15.77;10.83;;;;;;;7.48;76.34;99129.61;1745650;81;21459;-50
2021/04/20 04:44:49;;;;;;;17.37;11.33;;;;;;;7.60;76.21;99124.14;1745578;81;21702;-50
2021/04/20 04:47:16;;;;;;;12.50;9.87;;;;;;;7.72;76.05;99125.39;1745951;81;21388;-50
2021/04/20 04:49:45;;;;;;;10.97;9.73;;;;;;;7.83;75.91;99115.89;1745959;81;21991;-51
2021/04/20 04:52:14;;;;;;;12.83;11.40;;;;;;;7.96;75.77;99117.54;1744035;81;21508;-51
2021/04/20 04:54:43;;;;;;;14.10;12.23;;;;;;;8.08;75.42;99120.11;1743827;81;21218;-50
2021/04/20 04:57:12;;;;;;;17.47;12.33;;;;;;;8.19;75.21;99119.10;1744466;81;21601;-51
2021/04/20 04:59:39;;;;;;;16.37;11.80;;;;;;;8.30;75.07;99118.98;1725064;81;21356;-50
2021/04/20 05:02:07;;;;;;;15.37;13.63;;;;;;;8.42;74.86;99112.16;1744234;81;21601;-51
2021/04/20 05:04:34;;;;;;;16.47;14.00;;;;;;;8.57;74.69;99107.88;1697223;81;21174;-50
2021/04/20 05:07:02;;;;;;;13.70;12.20;;;;;;;8.71;74.48;99103.53;1746840;81;21110;-49
2021/04/20 05:09:29;;;;;;;15.13;11.17;;;;;;;8.88;74.12;99098.64;1748158;81;21118;-49
2021/04/20 05:11:57;;;;;;;11.13;10.03;;;;;;;9.04;73.43;99098.23;1745183;81;21376;-51
2021/04/20 05:14:25;;;;;;;11.67;10.47;;;;;;;9.17;72.73;99095.80;1741154;81;21173;-49
2021/04/20 05:16:54;;;;;;;11.77;10.57;;;;;;;9.28;72.31;99097.41;1743980;81;22275;-48
2021/04/20 05:19:31;;;;;;;9.40;8.53;;;;;;;9.40;71.95;99091.88;1744616;81;21206;-49
2021/04/20 05:21:59;;;;;;;10.03;9.00;;;;;;;9.50;71.37;99093.12;1746177;81;21158;-49
2021/04/20 05:24:28;;;;;;;9.20;7.73;;;;;;;9.60;69.74;99083.61;1746251;81;21352;-49
2021/04/20 05:26:57;;;;;;;9.93;9.00;;;;;;;9.62;69.51;99087.05;1745180;81;21161;-49
2021/04/20 05:29:24;;;;;;;13.40;8.33;;;;;;;9.60;69.00;99087.64;1745417;81;21585;-50
2021/04/20 05:31:52;;;;;;;10.93;9.30;;;;;;;9.57;68.93;99089.14;1748793;81;21154;-49
2021/04/20 05:34:20;;;;;;;10.10;7.30;;;;;;;9.55;68.58;99095.06;1743179;81;21232;-52
2021/04/20 05:36:48;;;;;;;8.10;7.40;;;;;;;9.57;68.55;99094.98;1748205;81;21261;-50
2021/04/20 05:39:17;;;;;;;11.12;8.23;;;;;;;9.58;68.02;99100.28;1758061;79;21202;-48
2021/04/20 05:41:44;;;;;;;9.20;8.27;;;;;;;9.57;68.14;99090.95;1757890;79;21176;-48
2021/04/20 05:44:14;;;;;;;8.67;7.93;;;;;;;9.56;68.37;99086.53;1759307;79;21327;-48
2021/04/20 05:46:46;;;;;;;11.67;7.23;;;;;;;9.61;68.22;99093.88;1760303;79;21107;-49
2021/04/20 05:49:15;;;;;;;7.77;6.90;;;;;;;9.64;68.24;99093.22;1761623;79;21393;-49
2021/04/20 05:51:43;;;;;;;8.20;7.33;;;;;;;9.68;67.95;99103.34;1759173;79;21669;-49
2021/04/20 05:54:10;;;;;;;6.60;5.47;;;;;;;9.67;67.38;99097.09;1760939;79;21151;-48
2021/04/20 05:56:39;;;;;;;6.40;5.53;;;;;;;9.69;67.29;99098.36;1760146;79;21086;-49
2021/04/20 05:59:06;;;;;;;6.47;6.00;;;;;;;9.72;67.25;99093.67;1761951;79;21474;-49
2021/04/20 06:01:40;;;;;;;7.70;6.97;;;;;;;9.79;67.35;99086.13;1762413;79;22190;-50
2021/04/20 06:04:09;;;;;;;8.67;7.40;;;;;;;9.91;67.15;99090.83;1760142;79;21110;-48
2021/04/20 06:06:39;;;;;;;10.80;7.07;;;;;;;9.97;66.88;99081.06;1764596;79;21105;-49
2021/04/20 06:09:07;;;;;;;10.03;7.70;;;;;;;10.03;66.46;99078.05;1783790;78;21082;-49
2021/04/20 06:11:34;;;;;;;10.70;8.10;;;;;;;10.07;66.31;99082.77;1757824;78;21103;-49
2021/04/20 06:14:02;;;;;;;8.87;7.83;;;;;;;10.07;65.88;99072.01;1787382;78;21436;-50
2021/04/20 06:16:30;;;;;;;8.13;7.37;;;;;;;10.03;65.98;99083.91;1784182;78;21134;-50
2021/04/20 06:18:58;;;;;;;7.37;6.75;;;;;;;9.99;66.07;99080.98;1755877;80;21300;-48
2021/04/20 06:21:26;;;;;;;8.13;7.27;;;;;;;9.96;66.03;99075.30;1784975;78;21104;-49
2021/04/20 06:23:54;;;;;;;9.03;6.93;;;;;;;9.97;66.14;99072.13;1785863;78;21507;-49
2021/04/20 06:26:22;;;;;;;7.73;7.03;;;;;;;9.99;65.59;99071.58;1785916;79;22697;-49
2021/04/20 06:28:49;;;;;;;6.83;6.30;;;;;;;9.99;65.66;99070.23;1785548;78;21144;-49
2021/04/20 06:31:18;;;;;;;7.33;6.70;;;;;;;10.01;65.56;99064.30;1783420;78;21151;-49
2021/04/20 06:33:45;;;;;;;7.78;7.08;;;;;;;10.05;65.50;99066.71;1785668;78;21668;-49
2021/04/20 06:36:14;;;;;;;8.57;7.73;;;;;;;10.11;65.65;99066.86;1783286;78;21095;-49
2021/04/20 06:38:41;;;;;;;7.77;7.03;;;;;;;10.18;65.62;99054.83;1782237;78;22002;-49
2021/04/20 06:41:09;;;;;;;9.28;7.47;;;;;;;10.27;65.43;99051.61;1777354;78;21239;-49
2021/04/20 06:43:57;;;;;;;11.53;7.60;;;;;;;10.34;65.25;99055.67;1775440;78;21240;-49
2021/04/20 06:46:31;;;;;;;7.70;7.03;;;;;;;10.41;64.97;99057.04;1778713;78;21163;-49
2021/04/20 06:49:05;;;;;;;7.20;6.53;;;;;;;10.47;64.63;99049.95;1781243;79;21146;-49
2021/04/20 06:51:38;;;;;;;7.37;6.55;;;;;;;10.53;64.56;99054.98;1745331;80;23364;-49
2021/04/20 06:54:18;;;;;;;10.13;6.80;;;;;;;10.56;64.34;99047.19;1774404;78;21218;-50
2021/04/20 06:56:52;;;;;;;7.42;6.75;;;;;;;10.63;63.91;99053.97;1779657;78;21182;-50
2021/04/20 06:59:50;;;;;;;8.38;7.45;;;;;;;10.62;63.41;99045.50;1779062;79;21202;-49
2021/04/20 07:03:07;;;;;;;6.78;6.15;;;;;;;10.61;63.64;99045.98;1778641;79;21221;-49
2021/04/20 07:05:58;;;;;;;7.17;6.53;;;;;;;10.61;63.87;99045.98;1690821;80;21408;-50
2021/04/20 07:08:40;;;;;;;6.95;6.35;;;;;;;10.61;63.78;99037.03;1755291;79;21617;-50
2021/04/20 07:11:08;;;;;;;7.12;6.40;;;;;;;10.60;63.55;99041.55;1758226;79;20970;-48
2021/04/20 07:13:37;;;;;;;7.08;6.40;;;;;;;10.59;63.83;99037.59;1757518;79;21109;-50
2021/04/20 07:16:32;;;;;;;5.87;5.30;;;;;;;10.58;64.04;99040.77;1754803;79;21106;-49
2021/04/20 07:19:37;;;;;;;5.25;4.87;;;;;;;10.59;64.09;99033.08;1754400;79;21377;-50
2021/04/20 07:22:39;;;;;;;4.83;4.40;;;;;;;10.65;64.50;99035.02;1753678;79;21586;-51
2021/04/20 07:25:33;;;;;;;4.72;4.37;;;;;;;10.71;63.72;99034.19;1753300;79;21560;-51
2021/04/20 07:28:31;;;;;;;5.50;3.98;;;;;;;10.74;63.57;99038.02;1782256;78;21154;-51
2021/04/20 07:31:44;;;;;;;8.25;5.62;;;;;;;10.74;63.17;99036.67;1778238;78;21170;-51
2021/04/20 07:34:29;;;;;;;5.50;5.08;;;;;;;10.73;63.07;99038.11;1724682;79;21191;-50
2021/04/20 07:41:15;;;;;;;7.10;5.63;;;;;;;10.74;63.93;99022.34;1869130;75;22689;-50
2021/04/20 07:44:29;;;;;;;4.78;4.35;;;;;;;10.76;63.69;99029.86;1747987;80;21191;-50
2021/04/20 07:46:57;;;;;;;3.10;2.90;;;;;;;10.77;63.75;99025.73;1751104;80;22481;-51
2021/04/20 07:49:59;;;;;;;2.35;2.15;;;;;;;10.85;63.68;99023.92;1777095;78;21007;-50
2021/04/20 07:52:43;;;;;;;3.05;2.00;;;;;;;10.91;63.80;99022.19;1724967;80;21222;-50
2021/04/20 07:55:17;;;;;;;3.95;3.72;;;;;;;11.00;63.09;99020.28;1742293;80;25024;-50
2021/04/20 07:57:53;;;;;;;4.75;3.37;;;;;;;11.06;63.01;99019.90;1776503;79;21191;-50
2021/04/20 08:00:31;;;;;;;5.03;3.10;;;;;;;11.04;62.51;99012.42;1743319;80;22492;-51
2021/04/20 08:03:22;;;;;;;2.98;2.67;;;;;;;11.01;62.52;99008.55;1747768;80;21242;-51
2021/04/20 08:06:14;;;;;;;1.85;1.75;;;;;;;10.99;62.45;99015.85;1741656;80;21225;-50
2021/04/20 08:08:58;;;;;;;1.65;1.55;;;;;;;10.92;61.27;99018.55;1778247;78;21178;-50
2021/04/20 08:11:50;;;;;;;1.72;1.62;;;;;;;10.80;61.16;99004.50;1777040;79;21212;-50
2021/04/20 08:14:29;;;;;;;1.45;1.35;;;;;;;10.76;61.24;99009.67;1719005;81;21358;-51
2021/04/20 08:17:10;;;;;;;2.37;1.75;;;;;;;10.75;61.65;99010.63;1734446;80;21215;-51
2021/04/20 08:20:07;;;;;;;4.33;1.17;;;;;;;10.79;61.29;99017.57;1762572;80;21108;-51
2021/04/20 08:22:34;;;;;;;2.55;1.10;;;;;;;10.85;61.14;99009.11;1759800;79;21138;-51
2021/04/20 08:25:10;;;;;;;3.47;1.47;;;;;;;10.89;60.34;99000.73;1757694;79;21157;-51
2021/04/20 08:27:43;;;;;;;;;;;;;;;10.97;60.40;99001.64;1764530;79;21469;-51
2021/04/20 08:30:19;;;;;;;2.00;1.25;;;;;;;11.09;60.06;99001.34;1761466;80;20295;-50
2021/04/20 08:32:50;;;;;;;1.30;1.00;;;;;;;11.18;59.03;98999.43;1731181;81;21127;-51
2021/04/20 08:35:28;;;;;;;0.88;0.80;;;;;;;11.24;59.02;98991.82;1757956;80;21167;-51
2021/04/20 08:38:22;;;;;;;1.42;0.90;;;;;;;11.29;57.87;98995.59;1759607;79;21187;-51
2021/04/20 08:41:14;;;;;;;1.00;0.90;;;;;;;11.30;57.41;98997.33;1758877;79;22305;-50
2021/04/20 08:44:02;;;;;;;2.10;0.90;;;;;;;11.29;57.04;98996.94;1761159;80;21170;-50
2021/04/20 08:46:43;;;;;;;1.07;0.98;;;;;;;11.24;57.49;98993.64;1773783;79;21245;-50
2021/04/20 08:49:43;;;;;;;1.40;1.10;;;;;;;11.24;58.04;98997.20;1725382;79;21182;-50
2021/04/20 08:52:32;;;;;;;1.50;1.10;;;;;;;11.25;58.21;98998.94;1778298;78;21242;-49
2021/04/20 08:55:17;;;;;;;1.30;1.10;;;;;;;11.26;57.90;98993.08;1712572;80;21411;-49
2021/04/20 08:58:02;;;;;;;1.17;1.07;;;;;;;11.25;58.11;98988.17;1777669;79;21218;-50
2021/04/20 09:00:36;;;;;;;;;;;;;;;11.24;58.20;98993.64;1778986;79;21182;-49
2021/04/20 09:03:20;;;;;;;1.10;1.00;;;;;;;11.21;58.58;98981.26;1779726;79;20642;-50
2021/04/20 09:05:54;;;;;;;1.05;0.90;;;;;;;11.21;58.73;98993.38;1777608;79;21111;-50
2021/04/20 09:08:39;;;;;;;;;;;;;;;11.20;58.71;98991.64;1753672;80;21437;-49
2021/04/20 09:11:11;;;;;;;1.40;1.00;;;;;;;11.17;58.92;98987.78;1749139;80;20266;-49
2021/04/20 09:14:10;;;;;;;1.27;1.00;;;;;;;11.12;58.93;98983.66;1747825;79;21107;-50
2021/04/20 09:16:45;;;;;;;2.12;1.22;;;;;;;11.12;59.27;99000.69;1779595;79;21083;-50
2021/04/20 09:19:18;;;;;;;;;;;;;;;11.06;59.42;98982.19;1782565;79;21427;-50
2021/04/20 09:22:09;;;;;;;1.55;0.90;;;;;;;11.02;59.67;98985.19;1746892;79;22111;-50
2021/04/20 09:25:04;;;;;;;1.20;1.00;;;;;;;10.99;59.88;98980.84;1759731;80;21569;-50
2021/04/20 09:28:12;;;;;;;1.45;1.10;;;;;;;10.99;59.70;98984.41;1762176;79;21181;-50
2021/04/20 09:30:57;;;;;;;1.15;1.05;;;;;;;10.95;59.61;98973.46;1761251;79;21102;-49
2021/04/20 09:33:47;;;;;;;1.72;0.98;;;;;;;10.91;59.61;98975.94;1762089;79;21190;-49
2021/04/20 09:36:14;;;;;;;1.15;1.00;;;;;;;10.91;59.61;98969.20;1729116;80;21354;-49
2021/04/20 09:38:46;;;;;;;2.10;0.98;;;;;;;10.94;59.91;98969.52;1759098;80;21716;-49
2021/04/20 09:41:14;;;;;;;3.27;1.30;;;;;;;10.98;59.70;98971.03;1776595;79;21439;-49
2021/04/20 09:44:02;;;;;;;1.17;1.00;;;;;;;11.00;59.39;98967.30;1775881;78;21202;-50
2021/04/20 09:46:50;;;;;;;1.10;1.00;;;;;;;11.02;59.84;98959.13;1656372;81;21528;-50
2021/04/20 09:49:46;;;;;;;2.52;1.67;;;;;;;11.06;59.48;98953.91;1776862;79;21842;-50
2021/04/20 09:52:21;;;;;;;2.80;1.33;;;;;;;11.13;59.84;98943.17;1867554;75;22761;-51
2021/04/20 09:55:03;;;;;;;1.57;1.15;;;;;;;11.12;60.02;98941.91;1860059;74;21135;-50
2021/04/20 09:57:36;;;;;;;2.33;2.12;;;;;;;11.17;60.33;98939.30;1858578;74;21369;-51
2021/04/20 10:00:06;;;;;;;1.40;1.30;;;;;;;11.30;59.49;98938.92;1864033;74;20964;-51
2021/04/20 10:03:23;;;;;;;1.30;1.20;;;;;;;11.37;58.91;98927.26;1863791;74;21102;-52
2021/04/20 10:06:24;;;;;;;1.30;1.20;;;;;;;11.44;59.11;98921.85;1859856;74;21767;-52
2021/04/20 10:09:42;;;;;;;3.98;1.15;;;;;;;11.59;59.07;98917.28;1863853;74;20912;-51
2021/04/20 10:12:32;;;;;;;1.60;1.50;;;;;;;11.67;58.14;98917.16;1860754;74;21655;-50
2021/04/20 10:15:33;;;;;;;2.42;1.35;;;;;;;11.70;57.39;98913.41;1861127;74;21205;-50
2021/04/20 10:18:24;;;;;;;1.20;1.10;;;;;;;11.72;57.86;98907.45;1862758;74;21146;-50
2021/04/20 10:20:59;;;;;;;3.47;0.90;;;;;;;11.77;56.16;98908.50;1861380;74;21158;-50
2021/04/20 10:23:38;;;;;;;2.17;1.30;;;;;;;11.76;55.88;98907.64;1861848;74;21194;-50
2021/04/20 10:26:15;;;;;;;1.55;1.10;;;;;;;11.79;55.89;98903.40;1861166;74;22277;-51
2021/04/20 10:28:56;;;;;;;1.10;1.00;;;;;;;11.79;56.31;98906.09;1859795;74;21182;-50
2021/04/20 10:31:30;;;;;;;1.70;1.20;;;;;;;11.77;56.17;98905.33;1798805;77;21198;-50
2021/04/20 10:33:58;;;;;;;1.72;1.62;;;;;;;11.79;56.38;98900.70;1792249;77;21623;-50
2021/04/20 10:36:26;;;;;;;1.40;1.17;;;;;;;11.83;55.78;98907.61;1800754;78;21583;-50
2021/04/20 10:38:54;;;;;;;1.87;1.10;;;;;;;11.81;56.17;98902.83;1800799;78;21412;-51
2021/04/20 10:41:33;;;;;;;2.60;1.00;;;;;;;11.84;55.31;98902.59;1796709;78;21750;-50
2021/04/20 10:44:00;;;;;;;1.22;1.12;;;;;;;11.88;55.53;98907.31;1778384;79;21191;-51
2021/04/20 10:46:29;;;;;;;4.05;1.27;;;;;;;11.91;55.49;98910.66;1781171;79;21183;-50
2021/04/20 10:48:58;;;;;;;1.55;1.00;;;;;;;11.93;54.58;98910.08;1780479;80;21197;-50
2021/04/20 10:51:33;;;;;;;1.27;0.98;;;;;;;11.94;54.04;98909.59;1794918;78;22299;-49
2021/04/20 10:54:00;;;;;;;1.12;1.00;;;;;;;11.93;54.43;98909.21;1808679;78;21747;-51
2021/04/20 10:56:30;;;;;;;1.92;1.07;;;;;;;11.91;54.38;98897.17;1805243;78;22015;-50
2021/04/20 10:59:04;;;;;;;5.25;1.15;;;;;;;11.93;55.08;98908.73;1808458;78;21214;-51
2021/04/20 11:01:33;;;;;;;1.50;1.10;;;;;;;11.92;54.08;98911.04;1808484;78;21151;-50
2021/04/20 11:04:03;;;;;;;1.20;1.10;;;;;;;11.83;54.95;98906.26;1778602;78;21378;-50
2021/04/20 11:07:10;;;;;;;3.50;1.05;;;;;;;11.73;54.73;98913.22;1811047;78;21151;-50
2021/04/20 11:09:37;;;;;;;2.00;1.30;;;;;;;11.70;55.48;98913.41;1800745;78;21185;-50
2021/04/20 11:12:15;;;;;;;2.95;1.02;;;;;;;11.73;54.98;98901.09;1799757;78;21505;-51
2021/04/20 11:14:48;;;;;;;2.00;1.37;;;;;;;11.75;54.92;98903.20;1807012;78;21084;-50
2021/04/20 11:17:35;;;;;;;1.07;0.98;;;;;;;11.77;54.69;98906.67;1803885;78;21218;-50
2021/04/20 11:20:28;;;;;;;0.78;0.75;;;;;;;11.77;52.99;98908.02;1802016;78;21159;-50
2021/04/20 11:23:18;;;;;;;1.05;0.90;;;;;;;11.75;52.66;98897.33;1801656;78;21170;-50
2021/04/20 11:25:58;;;;;;;1.65;1.00;;;;;;;11.77;53.12;98898.59;1803893;78;22044;-50
2021/04/20 11:28:49;;;;;;;1.40;1.30;;;;;;;11.81;53.12;98893.39;1802232;78;21539;-50
2021/04/20 11:31:36;;;;;;;1.10;1.00;;;;;;;11.79;53.27;98891.27;1807871;78;21673;-50
2021/04/20 11:34:23;;;;;;;2.47;1.40;;;;;;;11.76;54.16;98895.51;1805018;78;21163;-50
2021/04/20 11:36:56;;;;;;;3.25;1.30;;;;;;;11.75;54.97;98886.55;1801779;78;21175;-50
2021/04/20 11:39:27;;;;;;;2.52;1.47;;;;;;;11.81;55.38;98889.34;1802647;78;21108;-51
2021/04/20 11:42:17;;;;;;;1.40;1.20;;;;;;;11.83;54.75;98887.38;1808014;78;21088;-50
2021/04/20 11:44:52;;;;;;;1.50;1.30;;;;;;;11.76;54.06;98886.06;1802923;78;21465;-50
2021/04/20 11:47:19;;;;;;;1.42;1.17;;;;;;;11.72;54.19;98884.53;1801929;78;28363;-50
2021/04/20 11:49:54;;;;;;;1.30;1.20;;;;;;;11.71;54.19;98881.45;1803929;78;21748;-51
2021/04/20 11:52:30;;;;;;;0.88;0.80;;;;;;;11.68;53.13;98885.20;1805550;78;21151;-51
2021/04/20 11:55:01;;;;;;;1.00;0.90;;;;;;;11.62;51.86;98889.66;1804534;78;21084;-50
2021/04/20 11:57:29;;;;;;;1.87;1.10;;;;;;;11.58;52.57;98869.25;1803456;78;21155;-50
2021/04/20 11:59:56;;;;;;;1.40;1.00;;;;;;;11.58;52.81;98870.59;1805226;78;21115;-51
2021/04/20 12:02:28;;;;;;;3.92;1.00;;;;;;;11.59;53.05;98867.42;1808595;78;21103;-50
2021/04/20 12:05:07;;;;;;;1.77;1.00;;;;;;;11.58;53.25;98864.34;1804888;78;21095;-50
2021/04/20 12:07:36;;;;;;;3.60;1.20;;;;;;;11.55;53.77;98861.88;1803303;78;20996;-50
2021/04/20 12:10:05;;;;;;;1.60;1.10;;;;;;;11.53;53.94;98869.19;1805348;78;22043;-50
2021/04/20 12:12:35;;;;;;;1.00;0.90;;;;;;;11.53;53.89;98864.66;1804534;78;21478;-50